Time;durP1;ratioP1;P1;durP2;ratioP2;P2;SDS_P1;SDS_P2;PMS_P1;PMS_P2;Temp;Humidity;BMP_temperature;BMP_pressure;BME280_temperature;BME280_humidity;BME280_pressure;Samples;Min_cycle;Max_cycle;Signal;HPM_P1;HPM_P2
2022/06/13 00:01:21;;;;;;;5.38;4.55;;;;;;;19.09;100.00;99587.75;5088419;28;20026;-80
2022/06/13 00:03:48;;;;;;;5.25;4.75;;;;;;;19.07;100.00;99581.72;5054554;28;20114;-79
2022/06/13 00:06:14;;;;;;;5.47;4.90;;;;;;;19.06;100.00;99577.44;5054753;28;20123;-79
2022/06/13 00:08:40;;;;;;;8.88;5.88;;;;;;;19.01;100.00;99576.97;5087774;28;20447;-79
2022/06/13 00:11:09;;;;;;;6.85;5.20;;;;;;;18.93;100.00;99543.28;5054688;28;20036;-79
2022/06/13 00:13:36;;;;;;;11.50;5.90;;;;;;;18.89;100.00;99543.69;5072436;28;20400;-79
2022/06/13 00:16:01;;;;;;;8.82;6.22;;;;;;;18.76;100.00;99533.31;5088142;28;20896;-79
2022/06/13 00:18:27;;;;;;;7.53;5.57;;;;;;;18.65;100.00;99518.31;5072460;28;20027;-79
2022/06/13 00:20:53;;;;;;;6.20;5.63;;;;;;;18.64;100.00;99515.81;5072155;28;20025;-79
2022/06/13 00:23:19;;;;;;;6.88;6.18;;;;;;;18.56;100.00;99505.03;5072236;28;20028;-78
2022/06/13 00:25:44;;;;;;;7.32;5.72;;;;;;;18.48;100.00;99495.13;5072272;28;20028;-79
2022/06/13 00:28:09;;;;;;;8.65;5.45;;;;;;;18.42;100.00;99485.09;5072298;28;20020;-79
2022/06/13 00:30:35;;;;;;;8.10;5.65;;;;;;;18.34;100.00;99483.06;5072093;28;20029;-79
2022/06/13 00:33:00;;;;;;;7.40;5.15;;;;;;;18.26;100.00;99482.00;5072279;28;20376;-79
2022/06/13 00:35:26;;;;;;;5.75;4.63;;;;;;;18.26;100.00;99480.22;5072175;28;20487;-79
2022/06/13 00:37:51;;;;;;;6.07;4.88;;;;;;;18.14;100.00;99470.66;5087357;28;20495;-79
2022/06/13 00:40:17;;;;;;;5.20;4.70;;;;;;;18.22;100.00;99478.78;5072077;28;20028;-79
2022/06/13 00:42:42;;;;;;;5.38;4.43;;;;;;;18.24;100.00;99466.31;5071976;28;20028;-79
2022/06/13 00:45:15;;;;;;;5.03;4.47;;;;;;;18.23;100.00;99469.91;5054233;28;20036;-79
2022/06/13 00:47:44;;;;;;;4.78;4.28;;;;;;;18.14;100.00;99462.75;5053714;28;20032;-80
2022/06/13 00:50:17;;;;;;;7.97;4.90;;;;;;;18.06;100.00;99442.28;5072034;28;20459;-79
2022/06/13 00:52:48;;;;;;;8.70;5.45;;;;;;;18.04;100.00;99453.94;5071717;28;20387;-80
2022/06/13 00:55:21;;;;;;;6.20;5.60;;;;;;;17.89;100.00;99450.72;5072281;28;20048;-80
2022/06/13 00:57:46;;;;;;;7.78;5.35;;;;;;;17.84;100.00;99448.44;5053704;28;20028;-80
2022/06/13 01:00:17;;;;;;;5.65;5.05;;;;;;;17.78;100.00;99451.59;5087686;28;20021;-79
2022/06/13 01:02:45;;;;;;;8.20;5.15;;;;;;;17.64;100.00;99430.72;5053616;28;20024;-80
2022/06/13 01:05:14;;;;;;;7.07;5.10;;;;;;;17.73;100.00;99456.31;5071614;28;20072;-80
2022/06/13 01:07:40;;;;;;;5.60;5.10;;;;;;;17.69;100.00;99453.09;5071760;28;20016;-79
2022/06/13 01:12:51;;;;;;;5.45;4.95;;;;;;;17.51;100.00;99427.38;5078285;28;20036;-79
2022/06/13 01:15:35;;;;;;;5.68;4.75;;;;;;;17.53;100.00;99436.00;5078375;28;20103;-79
2022/06/13 01:18:03;;;;;;;5.85;5.05;;;;;;;17.48;100.00;99430.25;5078364;28;20384;-79
2022/06/13 01:20:34;;;;;;;5.55;4.80;;;;;;;17.44;100.00;99432.28;5078470;28;20032;-79
2022/06/13 01:23:09;;;;;;;5.63;5.10;;;;;;;17.40;100.00;99426.44;5060402;28;20498;-80
2022/06/13 01:25:40;;;;;;;6.50;5.38;;;;;;;17.39;100.00;99432.66;5078100;28;20136;-80
2022/06/13 01:28:24;;;;;;;8.50;5.78;;;;;;;17.38;100.00;99420.44;5078160;28;20016;-80
2022/06/13 01:31:36;;;;;;;9.57;5.88;;;;;;;17.32;100.00;99420.06;5060194;28;20028;-80
2022/06/13 01:34:10;;;;;;;9.73;5.80;;;;;;;17.20;100.00;99417.47;5060240;28;20028;-80
2022/06/13 01:36:48;;;;;;;5.80;5.25;;;;;;;17.09;100.00;99403.47;5078156;28;20028;-81
2022/06/13 01:39:21;;;;;;;6.45;4.90;;;;;;;17.10;100.00;99405.97;5078162;28;20032;-80
2022/06/13 01:42:11;;;;;;;5.90;5.22;;;;;;;17.11;100.00;99410.28;5055169;28;20040;-80
2022/06/13 01:44:49;;;;;;;5.75;5.15;;;;;;;17.11;100.00;99405.03;5055573;28;20098;-81
2022/06/13 01:47:40;;;;;;;7.30;5.22;;;;;;;17.11;100.00;99405.03;5055509;28;20044;-81
2022/06/13 01:50:28;;;;;;;;;;;;;;;17.12;100.00;99404.06;5056396;28;20112;-80
2022/06/13 01:53:01;;;;;;;7.20;5.50;;;;;;;17.10;100.00;99400.69;5055190;28;20419;-80
2022/06/13 01:55:47;;;;;;;7.32;5.53;;;;;;;17.19;100.00;99404.41;5055597;28;20037;-80
2022/06/13 01:58:36;;;;;;;5.80;5.20;;;;;;;17.20;100.00;99396.41;5056809;28;20116;-79
2022/06/13 02:01:14;;;;;;;7.10;5.97;;;;;;;17.23;100.00;99403.22;5038804;28;20065;-79
2022/06/13 02:04:12;;;;;;;6.93;5.65;;;;;;;17.30;100.00;99408.84;5054983;28;20478;-79
2022/06/13 02:06:46;;;;;;;5.38;4.85;;;;;;;17.24;100.00;99398.81;4995678;28;20050;-79
2022/06/13 02:09:17;;;;;;;5.63;5.10;;;;;;;17.30;100.00;99412.31;4995892;28;20654;-80
2022/06/13 02:11:52;;;;;;;5.90;5.05;;;;;;;17.24;100.00;99397.00;4995461;28;20038;-80
2022/06/13 02:14:26;;;;;;;7.18;5.00;;;;;;;17.30;100.00;99416.75;4996065;28;20381;-80
2022/06/13 02:17:02;;;;;;;6.35;5.25;;;;;;;17.24;100.00;99418.06;4995553;28;20468;-80
2022/06/13 02:19:40;;;;;;;5.28;4.78;;;;;;;17.24;100.00;99423.34;5007261;28;20489;-80
2022/06/13 02:22:12;;;;;;;5.35;4.85;;;;;;;17.17;100.00;99414.22;4996034;28;20041;-80
2022/06/13 02:24:44;;;;;;;7.85;5.60;;;;;;;17.19;100.00;99420.19;4995906;28;20061;-79
2022/06/13 02:27:11;;;;;;;6.32;5.82;;;;;;;17.18;100.00;99426.44;5012508;28;20056;-79
2022/06/13 02:29:58;;;;;;;7.78;6.40;;;;;;;17.17;100.00;99424.75;5012523;28;20046;-79
2022/06/13 02:32:39;;;;;;;7.10;6.40;;;;;;;17.14;100.00;99427.63;4995811;28;20091;-79
2022/06/13 02:35:18;;;;;;;8.02;7.18;;;;;;;17.11;100.00;99422.63;5012373;28;20034;-79
2022/06/13 02:37:50;;;;;;;8.00;7.38;;;;;;;17.11;100.00;99423.44;5011999;28;20050;-79
2022/06/13 02:40:21;;;;;;;8.43;7.55;;;;;;;17.08;100.00;99425.47;4995736;28;20029;-79
2022/06/13 02:42:50;;;;;;;8.50;7.70;;;;;;;17.06;100.00;99430.00;5022599;28;20094;-80
2022/06/13 02:45:23;;;;;;;9.20;8.25;;;;;;;17.08;100.00;99436.00;5051895;28;20087;-80
2022/06/13 02:48:16;;;;;;;8.65;7.45;;;;;;;16.99;100.00;99427.03;5061975;28;20041;-80
2022/06/13 02:51:01;;;;;;;8.57;7.53;;;;;;;17.02;100.00;99426.75;4992173;28;20047;-80
2022/06/13 02:54:01;;;;;;;7.82;7.03;;;;;;;17.06;100.00;99430.00;4976064;28;20030;-79
2022/06/13 03:00:00;;;;;;;9.73;7.90;;;;;;;17.12;100.00;99427.75;4953534;29;20042;-80
2022/06/13 03:02:47;;;;;;;8.18;7.20;;;;;;;17.20;100.00;99435.06;4953513;29;20039;-80
2022/06/13 03:05:29;;;;;;;13.60;7.20;;;;;;;17.22;100.00;99443.66;4937305;29;20133;-80
2022/06/13 03:08:16;;;;;;;8.88;7.50;;;;;;;17.24;100.00;99444.38;4952999;29;20122;-80
2022/06/13 03:11:16;;;;;;;7.47;6.78;;;;;;;17.26;100.00;99455.63;4937069;29;20089;-80
2022/06/13 03:13:47;;;;;;;8.68;7.45;;;;;;;17.26;100.00;99453.00;4880285;29;20132;-80
2022/06/13 03:16:27;;;;;;;9.10;8.02;;;;;;;17.14;100.00;99427.63;4880463;29;20132;-79
2022/06/13 03:18:57;;;;;;;8.77;7.85;;;;;;;17.14;100.00;99423.19;4880313;29;20440;-79
2022/06/13 03:21:35;;;;;;;8.65;7.85;;;;;;;17.18;100.00;99432.53;4896140;29;20108;-79
2022/06/13 03:24:25;;;;;;;8.25;7.45;;;;;;;17.14;100.00;99423.19;4895975;29;20079;-79
2022/06/13 03:27:15;;;;;;;7.85;7.05;;;;;;;17.14;100.00;99424.97;4882624;29;20406;-79
2022/06/13 03:29:48;;;;;;;8.13;7.43;;;;;;;17.18;100.00;99436.94;4914718;29;20040;-79
2022/06/13 03:32:37;;;;;;;8.25;7.32;;;;;;;17.19;100.00;99433.34;4918073;28;20036;-79
2022/06/13 03:35:08;;;;;;;12.25;7.53;;;;;;;17.18;100.00;99429.88;4971601;28;20145;-79
2022/06/13 03:37:42;;;;;;;8.95;8.05;;;;;;;17.17;100.00;99425.59;4972232;28;20123;-79
2022/06/13 03:40:17;;;;;;;9.88;7.65;;;;;;;17.17;100.00;99436.13;4956039;28;20043;-79
2022/06/13 03:42:54;;;;;;;9.18;8.07;;;;;;;17.20;100.00;99440.31;4955709;28;20038;-79
2022/06/13 03:45:26;;;;;;;8.95;8.15;;;;;;;17.24;100.00;99425.97;4955943;28;20035;-79
2022/06/13 03:48:09;;;;;;;9.10;8.10;;;;;;;17.25;100.00;99421.53;4971651;28;20035;-80
2022/06/13 03:50:46;;;;;;;9.40;8.55;;;;;;;17.27;100.00;99430.13;5023574;28;20124;-79
2022/06/13 03:53:23;;;;;;;10.35;8.32;;;;;;;17.28;100.00;99434.47;5054856;28;20115;-79
2022/06/13 03:56:01;;;;;;;10.98;8.65;;;;;;;17.26;100.00;99423.19;5054355;28;20066;-80
2022/06/13 03:58:35;;;;;;;11.10;8.77;;;;;;;17.20;100.00;99417.47;5072833;28;20024;-80
2022/06/13 04:01:26;;;;;;;9.10;8.20;;;;;;;17.19;100.00;99421.06;5054559;28;20021;-79
2022/06/13 04:03:55;;;;;;;11.80;9.02;;;;;;;17.08;100.00;99394.72;5072433;28;20048;-79
2022/06/13 04:06:33;;;;;;;11.15;8.82;;;;;;;17.09;100.00;99400.81;5072470;28;20029;-79
2022/06/13 04:09:01;;;;;;;10.43;9.43;;;;;;;17.02;100.00;99387.28;5054243;28;20490;-80
2022/06/13 04:11:47;;;;;;;9.68;8.77;;;;;;;17.07;100.00;99376.44;5088330;28;20360;-79
2022/06/13 04:14:34;;;;;;;10.93;9.38;;;;;;;17.16;100.00;99391.50;5072418;28;20082;-80
2022/06/13 04:17:24;;;;;;;9.93;8.85;;;;;;;17.20;100.00;99393.78;5072032;28;20070;-80
2022/06/13 04:19:59;;;;;;;10.95;9.85;;;;;;;17.23;100.00;99389.22;5072008;28;20594;-79
2022/06/13 04:22:42;;;;;;;10.55;9.45;;;;;;;17.26;100.00;99400.34;5072478;28;20028;-80
2022/06/13 04:25:19;;;;;;;10.23;9.25;;;;;;;17.28;100.00;99384.47;5071869;28;20036;-79
2022/06/13 04:28:07;;;;;;;10.15;9.02;;;;;;;17.29;100.00;99375.59;5053996;28;20437;-79
2022/06/13 04:30:35;;;;;;;10.60;9.50;;;;;;;17.33;100.00;99375.22;4990436;28;20410;-79
2022/06/13 04:33:33;;;;;;;9.57;8.68;;;;;;;17.38;100.00;99372.22;4990316;28;20138;-79
2022/06/13 04:35:59;;;;;;;10.85;9.75;;;;;;;17.44;100.00;99383.13;4990265;28;20047;-79
2022/06/13 04:38:27;;;;;;;9.25;8.35;;;;;;;17.51;100.00;99386.09;4990551;28;20561;-79
2022/06/13 04:40:59;;;;;;;9.32;8.38;;;;;;;17.66;100.00;99392.78;4990188;28;20173;-79
2022/06/13 04:43:28;;;;;;;10.13;8.65;;;;;;;17.73;100.00;99390.47;4990487;28;20061;-80
2022/06/13 04:46:08;;;;;;;9.65;7.78;;;;;;;17.81;100.00;99384.63;4989579;28;20117;-80
2022/06/13 04:48:37;;;;;;;10.02;8.60;;;;;;;17.78;100.00;99369.91;4989873;28;20046;-80
2022/06/13 04:51:14;;;;;;;9.63;8.57;;;;;;;17.86;100.00;99369.28;4990029;28;20035;-79
2022/06/13 04:53:55;;;;;;;9.20;8.30;;;;;;;17.94;100.00;99387.94;4974066;28;20030;-79
2022/06/13 04:56:21;;;;;;;;;;;;;;;17.98;100.00;99393.78;4990736;28;20069;-79
2022/06/13 04:58:47;;;;;;;10.90;8.63;;;;;;;18.02;100.00;99390.78;4990094;28;20341;-80
2022/06/13 05:01:45;;;;;;;9.80;8.07;;;;;;;18.11;100.00;99382.13;4973942;28;20125;-79
2022/06/13 05:04:14;;;;;;;10.77;9.05;;;;;;;18.19;100.00;99377.06;4989360;28;20049;-79
2022/06/13 05:06:44;;;;;;;9.32;7.78;;;;;;;18.24;100.00;99374.03;4997925;28;20033;-79
2022/06/13 05:09:10;;;;;;;8.95;8.15;;;;;;;18.24;100.00;99373.19;5087136;28;20024;-79
2022/06/13 05:11:45;;;;;;;10.55;8.45;;;;;;;18.22;100.00;99368.06;5071907;28;20021;-79
2022/06/13 05:14:13;;;;;;;8.50;7.70;;;;;;;18.23;100.00;99361.00;5087121;28;20460;-79
2022/06/13 05:16:56;;;;;;;10.55;9.10;;;;;;;18.33;100.00;99365.38;5071750;28;20025;-79
2022/06/13 05:19:48;;;;;;;8.82;7.57;;;;;;;18.41;100.00;99370.00;5053809;28;20032;-79
2022/06/13 05:22:22;;;;;;;8.20;7.40;;;;;;;18.48;100.00;99381.72;5071754;28;20210;-79
2022/06/13 05:25:03;;;;;;;7.50;6.90;;;;;;;18.57;100.00;99378.31;5071526;28;20039;-79
2022/06/13 05:27:29;;;;;;;8.15;7.10;;;;;;;18.61;100.00;99377.09;5053448;28;20468;-79
2022/06/13 05:29:54;;;;;;;8.38;7.10;;;;;;;18.70;100.00;99388.69;5071473;28;20033;-80
2022/06/13 05:32:21;;;;;;;7.75;6.90;;;;;;;18.71;100.00;99385.09;5053676;28;20078;-79
2022/06/13 05:34:48;;;;;;;7.90;7.10;;;;;;;18.84;100.00;99409.47;5087174;28;20028;-79
2022/06/13 05:37:16;;;;;;;8.15;7.43;;;;;;;18.84;100.00;99388.38;5071429;28;20499;-79
2022/06/13 05:39:41;;;;;;;7.28;6.63;;;;;;;18.96;100.00;99404.94;5087042;28;20078;-80
2022/06/13 05:42:09;;;;;;;7.25;6.65;;;;;;;19.01;100.00;99402.78;5071070;28;20032;-79
2022/06/13 05:44:34;;;;;;;8.20;7.40;;;;;;;19.04;100.00;99399.00;5071781;28;20042;-79
2022/06/13 05:46:59;;;;;;;8.07;7.15;;;;;;;19.03;100.00;99395.53;5053289;28;20119;-79
2022/06/13 05:49:25;;;;;;;7.68;6.85;;;;;;;19.11;100.00;99402.81;5053459;28;20476;-79
2022/06/13 05:51:50;;;;;;;8.55;7.75;;;;;;;19.07;100.00;99394.31;5086703;28;20044;-79
2022/06/13 05:54:16;;;;;;;9.48;8.50;;;;;;;19.00;100.00;99387.03;5086872;28;20115;-79
2022/06/13 05:56:41;;;;;;;10.85;9.25;;;;;;;18.93;100.00;99386.75;5072419;28;20024;-80
2022/06/13 05:59:07;;;;;;;10.38;8.95;;;;;;;18.90;100.00;99387.00;5090581;28;20024;-79
2022/06/13 06:01:35;;;;;;;10.30;9.30;;;;;;;18.83;100.00;99373.50;5057166;28;20056;-79
2022/06/13 06:04:04;;;;;;;9.25;8.45;;;;;;;18.81;100.00;99375.44;5086974;28;20448;-80
2022/06/13 06:06:32;;;;;;;12.25;9.13;;;;;;;18.71;100.00;99366.63;5053803;28;20013;-79
2022/06/13 06:08:59;;;;;;;11.05;9.70;;;;;;;18.65;100.00;99362.66;5053354;28;20083;-79
2022/06/13 06:11:26;;;;;;;10.63;9.52;;;;;;;18.56;100.00;99373.16;5053598;28;20043;-80
2022/06/13 06:13:52;;;;;;;11.10;8.43;;;;;;;18.61;100.00;99400.81;5055098;28;20104;-81
2022/06/13 06:16:20;;;;;;;9.80;7.38;;;;;;;18.65;100.00;99412.78;5053575;28;20495;-80
2022/06/13 06:18:46;;;;;;;8.43;7.63;;;;;;;18.70;100.00;99422.97;5053430;28;20033;-78
2022/06/13 06:21:12;;;;;;;9.05;7.90;;;;;;;18.72;100.00;99412.31;5054464;28;20029;-79
2022/06/13 06:23:37;;;;;;;7.97;7.18;;;;;;;18.80;100.00;99413.34;5054615;28;20083;-78
2022/06/13 06:26:04;;;;;;;8.52;7.63;;;;;;;18.92;100.00;99422.03;5054417;28;20029;-79
2022/06/13 06:28:31;;;;;;;7.15;6.18;;;;;;;18.91;100.00;99415.91;5054647;28;20033;-79
2022/06/13 06:30:58;;;;;;;8.13;7.30;;;;;;;18.89;100.00;99409.94;5054339;28;20029;-79
2022/06/13 06:33:25;;;;;;;9.50;7.60;;;;;;;19.01;100.00;99408.06;5054593;28;20029;-79
2022/06/13 06:35:51;;;;;;;8.27;7.43;;;;;;;18.98;100.00;99394.28;5054500;28;20082;-79
2022/06/13 06:38:17;;;;;;;9.05;7.18;;;;;;;18.86;100.00;99378.50;5052816;28;20033;-79
2022/06/13 06:40:43;;;;;;;9.02;7.97;;;;;;;18.84;100.00;99369.06;5054584;28;20506;-79
2022/06/13 06:43:09;;;;;;;9.48;7.78;;;;;;;18.81;100.00;99364.88;5054623;28;20108;-79
2022/06/13 06:45:35;;;;;;;8.07;7.32;;;;;;;18.90;100.00;99384.38;5054384;28;20032;-79
2022/06/13 06:48:01;;;;;;;8.85;7.07;;;;;;;18.97;100.00;99387.34;5052730;28;20025;-79
2022/06/13 06:50:31;;;;;;;8.05;6.60;;;;;;;19.13;100.00;99388.53;5054139;28;20532;-79
2022/06/13 06:52:57;;;;;;;7.40;6.70;;;;;;;19.24;100.00;99392.84;5052488;28;20388;-79
2022/06/13 07:00:55;;;;;;;6.88;5.85;;;;;;;20.33;100.00;99391.16;5053759;28;20059;-79
2022/06/13 07:03:20;;;;;;;7.13;6.07;;;;;;;20.70;100.00;99382.50;5055095;28;20021;-79
2022/06/13 07:05:46;;;;;;;8.68;6.30;;;;;;;21.16;100.00;99382.50;5074123;28;20056;-79
2022/06/13 07:08:14;;;;;;;8.02;5.90;;;;;;;21.46;100.00;99383.22;5073311;28;20025;-79
2022/06/13 07:10:39;;;;;;;8.13;5.90;;;;;;;22.06;100.00;99388.00;5073829;28;20392;-79
2022/06/13 07:13:05;;;;;;;5.45;4.95;;;;;;;22.13;100.00;99397.91;5055570;28;20025;-79
2022/06/13 07:15:30;;;;;;;6.50;5.28;;;;;;;22.10;100.00;99386.72;5073728;28;20033;-79
2022/06/13 07:17:56;;;;;;;6.63;5.68;;;;;;;22.14;100.00;99388.94;5055287;28;20032;-79
2022/06/13 07:20:22;;;;;;;5.32;4.82;;;;;;;22.21;100.00;99369.78;5055813;28;20047;-79
2022/06/13 07:22:49;;;;;;;5.80;5.18;;;;;;;22.29;100.00;99370.69;5073619;28;20059;-79
2022/06/13 07:25:25;;;;;;;5.35;4.45;;;;;;;22.31;100.00;99387.28;5073443;28;20474;-80
2022/06/13 07:27:51;;;;;;;5.88;4.70;;;;;;;22.42;100.00;99376.44;5089131;28;20028;-79
2022/06/13 07:30:19;;;;;;;5.82;5.28;;;;;;;22.50;100.00;99390.72;5073213;28;20085;-80
2022/06/13 07:32:45;;;;;;;6.13;5.15;;;;;;;22.53;100.00;99398.38;5073843;28;20106;-80
2022/06/13 07:35:14;;;;;;;6.75;5.40;;;;;;;22.51;99.69;99398.56;5073159;28;20139;-80
2022/06/13 07:40:24;;;;;;;5.53;5.03;;;;;;;22.52;99.36;99399.38;5073220;28;20043;-79
2022/06/13 07:42:52;;;;;;;6.00;5.40;;;;;;;22.39;99.55;99395.31;5088632;28;20060;-80
2022/06/13 07:45:22;;;;;;;7.45;5.75;;;;;;;22.29;99.85;99406.97;5072989;28;20103;-79
2022/06/13 07:47:49;;;;;;;7.03;6.27;;;;;;;22.22;100.00;99411.25;5073138;28;20037;-79
2022/06/13 07:50:17;;;;;;;7.93;6.10;;;;;;;21.88;100.00;99410.03;5072808;28;20033;-79
2022/06/13 07:52:42;;;;;;;7.60;6.45;;;;;;;21.54;100.00;99412.47;5072989;28;20101;-79
2022/06/13 07:55:09;;;;;;;7.50;5.97;;;;;;;21.24;100.00;99418.84;5072849;28;20075;-79
2022/06/13 07:57:34;;;;;;;7.55;6.63;;;;;;;20.99;100.00;99422.97;5072726;28;20090;-79
2022/06/13 08:00:00;;;;;;;7.95;7.10;;;;;;;20.78;100.00;99420.50;5088307;28;20445;-79
2022/06/13 08:02:31;;;;;;;9.05;7.45;;;;;;;20.53;100.00;99414.00;5072866;28;20031;-78
2022/06/13 08:04:56;;;;;;;8.45;7.45;;;;;;;20.32;100.00;99416.75;5072653;28;20040;-78
2022/06/13 08:07:22;;;;;;;11.35;9.32;;;;;;;20.29;100.00;99418.84;5072443;28;20020;-79
2022/06/13 08:09:47;;;;;;;14.07;9.50;;;;;;;20.36;100.00;99406.75;5054644;28;20028;-78
2022/06/13 08:12:16;;;;;;;10.40;9.23;;;;;;;20.83;100.00;99396.25;5072246;28;20024;-78
2022/06/13 08:14:45;;;;;;;16.17;10.77;;;;;;;20.88;100.00;99386.91;5072900;28;20035;-78
2022/06/13 08:17:12;;;;;;;11.98;9.95;;;;;;;20.93;99.41;99391.75;5072407;28;20020;-79
2022/06/13 08:19:38;;;;;;;10.90;9.80;;;;;;;20.90;98.87;99389.44;5072092;28;20025;-80
2022/06/13 08:22:03;;;;;;;12.00;10.50;;;;;;;20.77;97.59;99391.53;5087840;28;20024;-79
2022/06/13 08:24:29;;;;;;;11.05;9.93;;;;;;;20.85;97.98;99407.53;5054332;28;20072;-79
2022/06/13 08:26:54;;;;;;;14.23;9.95;;;;;;;20.95;98.46;99418.94;5072292;28;20108;-79
2022/06/13 08:29:20;;;;;;;13.05;10.10;;;;;;;20.90;98.98;99431.78;5072188;28;20035;-79
2022/06/13 08:31:45;;;;;;;13.98;10.63;;;;;;;20.73;98.56;99424.53;5054427;28;20120;-79
2022/06/13 08:34:10;;;;;;;15.65;11.93;;;;;;;20.65;98.70;99423.47;5072102;28;20460;-80
2022/06/13 08:36:36;;;;;;;12.88;11.55;;;;;;;20.61;98.61;99424.72;5054203;28;20020;-80
2022/06/13 08:39:02;;;;;;;17.55;11.82;;;;;;;20.55;98.74;99435.00;5071976;28;20035;-80
2022/06/13 08:41:37;;;;;;;11.10;10.05;;;;;;;20.57;99.55;99422.50;5072181;28;20035;-80
2022/06/13 08:44:14;;;;;;;12.48;9.93;;;;;;;20.69;99.60;99437.25;5071909;28;20028;-79
2022/06/13 08:47:24;;;;;;;14.15;9.52;;;;;;;20.66;100.00;99445.47;5054246;28;20363;-79
2022/06/13 08:49:49;;;;;;;9.45;8.50;;;;;;;20.50;98.75;99459.25;4990324;28;20096;-79
2022/06/13 08:52:30;;;;;;;13.25;8.95;;;;;;;20.30;99.67;99478.69;4990102;28;20540;-79
2022/06/13 08:55:14;;;;;;;9.48;7.97;;;;;;;20.08;100.00;99495.66;4990186;28;20042;-79
2022/06/13 08:57:47;;;;;;;12.45;7.90;;;;;;;19.82;100.00;99503.22;4990264;28;20066;-79
2022/06/13 09:00:18;;;;;;;14.85;7.47;;;;;;;19.55;100.00;99509.03;4973625;28;20399;-79
2022/06/13 09:02:50;;;;;;;9.25;5.93;;;;;;;19.26;100.00;99535.34;4990234;28;20046;-79
2022/06/13 09:05:23;;;;;;;7.88;5.43;;;;;;;18.83;100.00;99552.91;4989771;28;20129;-79
2022/06/13 09:07:54;;;;;;;14.55;6.50;;;;;;;18.61;100.00;99566.16;4990092;28;20549;-80
2022/06/13 09:10:31;;;;;;;8.32;5.60;;;;;;;18.28;100.00;99560.00;4970152;28;20550;-79
2022/06/13 09:13:20;;;;;;;10.23;6.45;;;;;;;18.06;100.00;99555.59;4970568;28;20066;-80
2022/06/13 09:15:59;;;;;;;11.63;5.97;;;;;;;17.92;100.00;99561.13;4970697;28;20483;-79
2022/06/13 09:18:40;;;;;;;9.60;5.32;;;;;;;17.81;100.00;99569.03;4970485;28;20066;-79
2022/06/13 09:21:24;;;;;;;9.18;6.30;;;;;;;17.75;100.00;99565.09;4970480;28;20069;-79
2022/06/13 09:23:55;;;;;;;9.52;6.05;;;;;;;17.63;100.00;99571.28;4970543;28;20308;-79
2022/06/13 09:26:27;;;;;;;11.43;5.57;;;;;;;17.53;100.00;99579.06;5002529;28;20045;-79
2022/06/13 09:29:04;;;;;;;8.40;6.03;;;;;;;17.41;100.00;99580.81;5029248;28;20029;-79
2022/06/13 09:31:44;;;;;;;9.07;6.07;;;;;;;17.50;100.00;99595.06;5031936;28;20485;-78
2022/06/13 09:34:12;;;;;;;10.10;5.38;;;;;;;17.49;100.00;99584.63;5033097;28;20104;-79
2022/06/13 09:36:46;;;;;;;7.53;5.88;;;;;;;17.45;100.00;99566.47;5033256;28;20085;-79
2022/06/13 09:39:12;;;;;;;6.43;5.30;;;;;;;17.51;100.00;99583.56;5033211;28;20033;-79
2022/06/13 09:42:35;;;;;;;5.80;5.20;;;;;;;17.53;100.00;99581.69;5059618;28;20036;-79
2022/06/13 09:45:19;;;;;;;7.35;5.00;;;;;;;17.51;100.00;99585.38;4993811;28;20030;-79
2022/06/13 09:48:03;;;;;;;7.85;5.55;;;;;;;17.45;100.00;99578.78;4993586;28;20478;-79
2022/06/13 09:50:33;;;;;;;11.57;5.13;;;;;;;17.45;100.00;99589.31;4993370;28;20101;-79
2022/06/13 09:53:11;;;;;;;9.02;5.68;;;;;;;17.43;100.00;99585.94;4993598;28;20375;-79
2022/06/13 09:55:53;;;;;;;9.20;5.60;;;;;;;17.49;100.00;99598.66;4993512;28;20042;-79
2022/06/13 09:58:21;;;;;;;9.00;4.93;;;;;;;17.58;100.00;99613.75;4993233;28;20034;-79
2022/06/13 10:00:55;;;;;;;6.22;4.60;;;;;;;17.67;100.00;99606.94;4993564;28;20030;-79
2022/06/13 10:03:38;;;;;;;9.85;5.95;;;;;;;17.74;100.00;99594.13;4993286;28;20410;-80
2022/06/13 10:06:12;;;;;;;8.50;5.60;;;;;;;17.75;100.00;99598.50;4993504;28;20034;-79
2022/06/13 10:08:48;;;;;;;8.10;4.97;;;;;;;17.74;100.00;99594.13;4993297;28;20061;-79
2022/06/13 10:11:29;;;;;;;7.35;5.18;;;;;;;17.67;100.00;99586.72;4976734;28;20082;-79
2022/06/13 10:14:26;;;;;;;8.23;5.38;;;;;;;17.66;100.00;99600.00;4993296;28;20178;-80
2022/06/13 10:17:05;;;;;;;6.00;4.85;;;;;;;17.63;100.00;99605.50;5009931;28;20197;-78
2022/06/13 10:20:03;;;;;;;7.35;5.38;;;;;;;17.65;100.00;99591.25;5012423;28;20037;-79
2022/06/13 10:22:40;;;;;;;8.98;5.68;;;;;;;17.68;100.00;99585.75;5012364;28;20431;-79
2022/06/13 10:25:06;;;;;;;7.55;5.30;;;;;;;17.72;100.00;99586.38;5012594;28;20058;-78
2022/06/13 10:27:52;;;;;;;9.30;6.32;;;;;;;17.73;100.00;99588.03;4995681;28;20068;-78
2022/06/13 10:30:17;;;;;;;9.25;6.03;;;;;;;17.76;100.00;99592.28;5012226;28;20128;-78
2022/06/13 10:32:45;;;;;;;7.95;5.55;;;;;;;17.77;100.00;99572.88;5012475;28;20105;-78
2022/06/13 10:35:39;;;;;;;9.27;5.40;;;;;;;17.86;100.00;99570.34;5012505;28;20038;-78
2022/06/13 10:38:35;;;;;;;8.25;5.88;;;;;;;18.05;100.00;99568.91;5012533;28;20059;-78
2022/06/13 10:41:01;;;;;;;10.88;6.57;;;;;;;18.12;100.00;99563.03;4995830;28;20042;-78
2022/06/13 10:43:27;;;;;;;8.15;6.10;;;;;;;18.18;100.00;99567.81;5011349;28;20037;-79
2022/06/13 10:45:52;;;;;;;7.93;6.32;;;;;;;18.19;100.00;99564.22;4995753;28;20030;-79
2022/06/13 10:48:35;;;;;;;9.30;5.85;;;;;;;18.32;100.00;99573.78;5011735;28;20172;-79
2022/06/13 10:51:04;;;;;;;7.80;6.70;;;;;;;18.39;100.00;99564.44;5012089;28;20037;-78
2022/06/13 10:53:41;;;;;;;8.88;6.60;;;;;;;18.65;100.00;99575.50;5035175;28;20040;-78
2022/06/13 10:56:32;;;;;;;10.25;6.78;;;;;;;18.97;100.00;99567.63;5073988;28;20380;-78
2022/06/13 10:58:58;;;;;;;8.98;7.43;;;;;;;19.26;100.00;99561.75;4992361;28;20042;-79
2022/06/13 11:01:29;;;;;;;9.68;7.55;;;;;;;19.48;100.00;99558.94;4991980;28;20042;-78
2022/06/13 11:04:00;;;;;;;10.82;8.25;;;;;;;19.80;100.00;99558.84;4992065;28;20502;-79
2022/06/13 11:06:46;;;;;;;10.52;8.13;;;;;;;20.08;100.00;99569.69;4992026;28;20030;-79
2022/06/13 11:09:36;;;;;;;10.95;7.60;;;;;;;20.28;100.00;99576.69;4991723;28;20034;-79
2022/06/13 11:12:05;;;;;;;10.75;7.35;;;;;;;20.19;100.00;99573.06;4992520;28;20031;-79
2022/06/13 11:14:33;;;;;;;9.65;8.05;;;;;;;20.07;100.00;99576.78;4992042;28;20034;-78
2022/06/13 11:22:39;;;;;;;10.48;8.13;;;;;;;19.18;100.00;99584.31;4991983;28;20086;-79
2022/06/13 11:25:27;;;;;;;10.95;7.65;;;;;;;18.91;100.00;99576.03;4991864;28;20442;-79
2022/06/13 11:28:22;;;;;;;9.70;8.02;;;;;;;18.70;100.00;99576.84;4991598;28;20031;-78
2022/06/13 11:30:50;;;;;;;11.30;7.75;;;;;;;18.56;100.00;99555.16;4936838;29;20395;-78
2022/06/13 11:33:36;;;;;;;9.30;7.38;;;;;;;18.54;100.00;99565.84;4936618;29;20039;-78
2022/06/13 11:36:14;;;;;;;7.90;7.10;;;;;;;18.48;100.00;99576.03;4983045;28;20600;-79
2022/06/13 11:38:51;;;;;;;8.50;7.65;;;;;;;18.52;100.00;99572.19;5011200;28;20117;-78
2022/06/13 11:41:44;;;;;;;9.65;8.15;;;;;;;18.61;100.00;99568.81;5018988;28;20069;-79
2022/06/13 11:44:20;;;;;;;9.85;8.00;;;;;;;18.75;100.00;99571.22;4933494;29;20040;-79
2022/06/13 11:46:56;;;;;;;10.95;8.45;;;;;;;19.10;100.00;99567.44;4933254;29;20052;-79
2022/06/13 11:49:43;;;;;;;12.25;7.78;;;;;;;19.51;100.00;99555.19;4933036;29;20072;-79
2022/06/13 11:52:11;;;;;;;11.40;8.75;;;;;;;19.87;100.00;99545.94;4933373;29;20050;-80
2022/06/13 11:54:40;;;;;;;13.25;7.22;;;;;;;19.85;100.00;99540.81;4932009;29;20040;-79
2022/06/13 11:57:14;;;;;;;9.00;5.68;;;;;;;19.84;100.00;99549.69;4933094;29;20118;-79
2022/06/13 11:59:49;;;;;;;7.65;5.57;;;;;;;20.01;100.00;99536.81;4933368;29;20031;-78
2022/06/13 12:02:49;;;;;;;6.75;4.60;;;;;;;20.56;100.00;99539.88;4917096;29;20075;-78
2022/06/13 12:05:37;;;;;;;6.70;3.67;;;;;;;20.71;98.39;99535.84;4876368;29;20092;-77
2022/06/13 12:08:16;;;;;;;8.55;3.95;;;;;;;20.53;93.22;99540.16;4916152;29;20094;-77
2022/06/13 12:10:52;;;;;;;7.07;3.60;;;;;;;20.48;98.00;99544.97;4933213;29;20039;-78
2022/06/13 12:13:20;;;;;;;8.10;4.40;;;;;;;20.72;98.24;99542.81;4932702;29;20121;-78
2022/06/13 12:16:08;;;;;;;7.25;4.32;;;;;;;20.93;96.97;99548.78;4932876;29;20042;-79